ROK weather

Rockhampton Airport
Rockhampton, Queensland, Australia

Public forecast

Using degrees Celsius for public forecast. Weather courtesy of forecast.io.

METAR (pilot weather report)

Retrieved 2017/05/23 16:30 UTC (11 minutes ago):

YBRK 231630Z AUTO 18004KT 9999 // NCD 18/17 Q1018 RF00.0/000.0

TAF (pilot weather forecast)

Retrieved 2017/05/23 12:36 UTC (4 hours ago):

TAF YBRK 231124Z 2312/2412 18005KT 9999 FEW015 FM232300 13008KT CAVOK FM240500 04007KT 9999 FEW040 FM240900 VRB05KT CAVOK PROB30 2316/2322 0500 FG OVC001